createdAt,value
2022-08-21T00:00:18.537Z,1.98
2022-08-21T00:02:48.676Z,2.06
2022-08-21T00:05:16.139Z,1.91
2022-08-21T00:07:42.796Z,2.09
2022-08-21T00:10:09.971Z,2.13
2022-08-21T00:12:36.604Z,2.14
2022-08-21T00:15:06.640Z,2.10
2022-08-21T00:17:35.825Z,2.14
2022-08-21T00:20:06.743Z,2.12
2022-08-21T00:22:33.488Z,2.03
2022-08-21T00:25:00.222Z,2.14
2022-08-21T00:27:27.021Z,2.07
2022-08-21T00:29:53.649Z,2.14
2022-08-21T00:32:22.875Z,2.08
2022-08-21T00:34:49.597Z,2.27
2022-08-21T00:37:16.570Z,2.24
2022-08-21T00:39:43.412Z,2.19
2022-08-21T00:42:11.278Z,2.41
2022-08-21T00:44:37.913Z,2.45
2022-08-21T00:47:04.749Z,2.28
2022-08-21T00:49:31.461Z,2.26
2022-08-21T00:52:01.978Z,2.43
2022-08-21T00:54:32.885Z,2.30
2022-08-21T00:57:11.695Z,2.31
2022-08-21T00:59:41.456Z,2.43
2022-08-21T01:02:10.395Z,2.27
2022-08-21T01:04:37.541Z,2.39
2022-08-21T01:07:04.762Z,2.33
2022-08-21T01:09:31.674Z,2.26
2022-08-21T01:11:58.543Z,2.39
2022-08-21T01:14:25.739Z,2.49
2022-08-21T01:16:54.641Z,2.33
2022-08-21T01:19:23.130Z,2.45
2022-08-21T01:21:50.265Z,2.58
2022-08-21T01:24:17.277Z,2.41
2022-08-21T01:26:44.911Z,2.46
2022-08-21T01:29:29.606Z,2.66
2022-08-21T01:31:56.366Z,2.60
2022-08-21T01:34:23.625Z,2.59
2022-08-21T01:36:50.398Z,2.44
2022-08-21T01:39:17.937Z,2.92
2022-08-21T01:41:44.603Z,2.72
2022-08-21T01:44:11.536Z,2.85
2022-08-21T01:46:38.357Z,2.79
2022-08-21T01:49:06.619Z,2.89
2022-08-21T01:51:33.508Z,2.52
2022-08-21T01:54:00.505Z,2.58
2022-08-21T01:56:27.361Z,2.63
2022-08-21T01:58:54.076Z,2.43
2022-08-21T02:01:20.936Z,2.29
2022-08-21T02:03:47.585Z,2.52
2022-08-21T02:06:16.557Z,2.66
2022-08-21T02:08:43.186Z,2.33
2022-08-21T02:11:09.848Z,2.35
2022-08-21T02:13:36.648Z,2.49
2022-08-21T02:16:03.951Z,2.45
2022-08-21T02:18:30.642Z,2.36
2022-08-21T02:20:57.493Z,2.35
2022-08-21T02:23:27.230Z,2.35
2022-08-21T02:26:06.587Z,2.36
2022-08-21T02:28:33.990Z,2.48
2022-08-21T02:31:00.651Z,2.34
2022-08-21T02:33:28.667Z,2.46
2022-08-21T02:35:58.766Z,2.48
2022-08-21T02:38:29.169Z,2.35
2022-08-21T02:40:57.331Z,2.37
2022-08-21T02:43:27.774Z,2.40
2022-08-21T02:45:57.059Z,2.40
2022-08-21T02:48:27.723Z,2.59
2022-08-21T02:50:59.282Z,2.48
2022-08-21T02:53:26.828Z,2.27
2022-08-21T02:55:54.501Z,2.34
2022-08-21T02:58:25.741Z,2.46
2022-08-21T03:00:52.992Z,2.59
2022-08-21T03:03:23.058Z,2.71
2022-08-21T03:05:50.414Z,2.67
2022-08-21T03:08:18.444Z,2.67
2022-08-21T03:10:49.149Z,2.54
2022-08-21T03:13:16.722Z,2.47
2022-08-21T03:15:44.733Z,2.45
2022-08-21T03:18:12.804Z,2.30
2022-08-21T03:20:42.226Z,2.59
2022-08-21T03:23:12.570Z,2.67
2022-08-21T03:25:42.092Z,2.56
2022-08-21T03:28:13.996Z,2.43
2022-08-21T03:30:46.523Z,2.69
2022-08-21T03:33:15.143Z,2.71
2022-08-21T03:35:50.833Z,2.65
2022-08-21T03:38:17.549Z,2.52
2022-08-21T03:40:45.020Z,2.50
2022-08-21T03:43:11.992Z,2.42
2022-08-21T03:45:39.648Z,2.70
2022-08-21T03:48:08.129Z,2.52
2022-08-21T03:50:41.488Z,2.72
2022-08-21T03:53:17.295Z,2.63
2022-08-21T03:55:49.695Z,2.93
2022-08-21T03:58:19.307Z,2.99
2022-08-21T04:00:49.681Z,2.88
2022-08-21T04:03:17.168Z,2.60
2022-08-21T04:05:44.120Z,2.92
2022-08-21T04:08:10.759Z,3.06
2022-08-21T04:10:39.689Z,2.98
2022-08-21T04:13:24.239Z,2.94
2022-08-21T04:15:51.402Z,3.01
2022-08-21T04:18:18.123Z,2.92
2022-08-21T04:20:50.695Z,3.07
2022-08-21T04:23:23.910Z,3.09
2022-08-21T04:25:52.907Z,3.03
2022-08-21T04:28:19.827Z,3.05
2022-08-21T04:30:47.013Z,3.02
2022-08-21T04:33:14.481Z,3.02
2022-08-21T04:35:41.149Z,3.11
2022-08-21T04:38:07.858Z,2.92
2022-08-21T04:40:34.768Z,3.25
2022-08-21T04:43:10.611Z,3.29
2022-08-21T04:45:40.728Z,3.46
2022-08-21T04:48:14.099Z,3.33
2022-08-21T04:50:43.827Z,3.15
2022-08-21T04:53:21.529Z,2.95
2022-08-21T04:55:49.731Z,2.86
2022-08-21T04:58:21.440Z,2.89
2022-08-21T05:00:48.830Z,2.75
2022-08-21T05:03:18.544Z,3.02
2022-08-21T05:05:45.623Z,2.83
2022-08-21T05:08:19.618Z,2.72
2022-08-21T05:10:46.901Z,2.59
2022-08-21T05:13:14.246Z,2.83
2022-08-21T05:15:41.320Z,2.74
2022-08-21T05:18:07.986Z,2.82
2022-08-21T05:20:35.066Z,2.90
2022-08-21T05:23:07.783Z,2.91
2022-08-21T05:25:35.303Z,2.97
2022-08-21T05:28:02.812Z,2.94
2022-08-21T05:30:29.447Z,2.97
2022-08-21T05:33:01.116Z,2.82
2022-08-21T05:35:29.571Z,2.93
2022-08-21T05:37:57.194Z,2.71
2022-08-21T05:40:24.577Z,2.69
2022-08-21T05:42:55.022Z,2.71
2022-08-21T05:45:43.452Z,2.67
2022-08-21T05:48:30.842Z,2.53
2022-08-21T05:50:57.838Z,2.61
2022-08-21T05:53:25.836Z,2.70
2022-08-21T05:55:52.941Z,2.84
2022-08-21T05:58:22.272Z,2.75
2022-08-21T06:00:51.767Z,2.71
2022-08-21T06:03:25.199Z,2.65
2022-08-21T06:05:52.827Z,2.66
2022-08-21T06:08:20.766Z,2.88
2022-08-21T06:10:49.525Z,2.79
2022-08-21T06:13:17.804Z,2.61
2022-08-21T06:15:44.475Z,2.51
2022-08-21T06:18:11.789Z,2.48
2022-08-21T06:20:39.641Z,2.74
2022-08-21T06:23:06.322Z,2.37
2022-08-21T06:25:32.974Z,2.50
2022-08-21T06:28:08.806Z,2.51
2022-08-21T06:30:39.906Z,2.42
2022-08-21T06:33:07.192Z,2.45
2022-08-21T06:35:35.274Z,2.29
2022-08-21T06:38:02.909Z,2.51
2022-08-21T06:40:31.079Z,2.68
2022-08-21T06:43:11.612Z,2.52
2022-08-21T06:45:42.335Z,2.57
2022-08-21T06:48:09.440Z,2.34
2022-08-21T06:50:37.034Z,2.51
2022-08-21T06:53:12.807Z,2.44
2022-08-21T06:55:40.910Z,2.36
2022-08-21T06:58:08.584Z,2.46
2022-08-21T07:00:39.835Z,2.47
2022-08-21T07:03:06.559Z,2.10
2022-08-21T07:05:33.589Z,2.05
2022-08-21T07:08:00.304Z,1.92
2022-08-21T07:10:28.190Z,2.10
2022-08-21T07:13:00.302Z,2.01
2022-08-21T07:15:31.595Z,2.05
2022-08-21T07:18:00.240Z,1.99
2022-08-21T07:20:28.909Z,2.16
2022-08-21T07:22:59.811Z,1.97
2022-08-21T07:25:26.703Z,1.80
2022-08-21T07:27:53.736Z,2.06
2022-08-21T07:30:20.556Z,2.03
2022-08-21T07:32:47.249Z,2.26
2022-08-21T07:35:13.904Z,2.11
2022-08-21T07:37:40.849Z,2.19
2022-08-21T07:40:08.535Z,1.98
2022-08-21T07:42:35.273Z,2.24
2022-08-21T07:45:01.896Z,2.39
2022-08-21T07:47:41.934Z,2.01
2022-08-21T07:50:12.017Z,2.26
2022-08-21T07:52:39.524Z,2.25
2022-08-21T07:55:07.050Z,2.50
2022-08-21T07:57:33.905Z,2.43
2022-08-21T08:00:00.582Z,2.58
2022-08-21T08:02:30.690Z,2.64
2022-08-21T08:05:09.086Z,2.95
2022-08-21T08:07:36.075Z,2.47
2022-08-21T08:10:04.213Z,2.39
2022-08-21T08:12:30.854Z,2.57
2022-08-21T08:14:59.516Z,2.43
2022-08-21T08:17:29.031Z,2.63
2022-08-21T08:19:55.753Z,4.85
2022-08-21T08:22:23.981Z,2.62
2022-08-21T08:24:52.807Z,2.49
2022-08-21T08:27:20.411Z,2.64
2022-08-21T08:29:47.106Z,3.58
2022-08-21T08:32:14.578Z,6.52
2022-08-21T08:34:41.258Z,6.90
2022-08-21T08:37:10.203Z,2.66
2022-08-21T08:39:37.439Z,2.62
2022-08-21T08:42:32.106Z,2.67
2022-08-21T08:45:13.859Z,2.74
2022-08-21T08:47:53.792Z,2.70
2022-08-21T08:50:32.755Z,2.42
2022-08-21T08:53:06.160Z,2.45
2022-08-21T08:55:39.545Z,2.58
2022-08-21T08:58:06.469Z,2.67
2022-08-21T09:00:33.920Z,2.82
2022-08-21T09:03:03.667Z,2.80
2022-08-21T09:05:43.525Z,2.70
2022-08-21T09:08:38.108Z,2.64
2022-08-21T09:11:19.954Z,2.79
2022-08-21T09:13:58.733Z,2.63
2022-08-21T09:16:25.554Z,2.81
2022-08-21T09:18:54.760Z,2.82
2022-08-21T09:21:47.278Z,2.95
2022-08-21T09:24:51.935Z,2.95
2022-08-21T09:27:20.755Z,3.00
2022-08-21T09:29:52.649Z,2.99
2022-08-21T09:32:23.437Z,3.33
2022-08-21T09:35:15.704Z,3.41
2022-08-21T09:37:54.400Z,3.51
2022-08-21T09:40:40.948Z,3.85
2022-08-21T09:43:21.062Z,3.46
2022-08-21T09:45:50.730Z,3.38
2022-08-21T09:48:27.142Z,3.56
2022-08-21T09:51:13.580Z,3.32
2022-08-21T09:53:46.333Z,3.79
2022-08-21T09:56:53.911Z,3.65
2022-08-21T09:59:34.179Z,3.56
2022-08-21T10:02:23.793Z,3.60
2022-08-21T10:04:53.764Z,3.53
2022-08-21T10:07:23.254Z,3.56
2022-08-21T10:10:07.962Z,3.84
2022-08-21T10:12:42.149Z,3.54
2022-08-21T10:15:28.632Z,3.37
2022-08-21T10:18:05.757Z,3.43
2022-08-21T10:20:45.764Z,3.31
2022-08-21T10:23:33.460Z,3.83
2022-08-21T10:26:28.775Z,3.66
2022-08-21T10:29:20.520Z,3.31
2022-08-21T10:32:02.355Z,3.14
2022-08-21T10:34:35.917Z,3.43
2022-08-21T10:37:24.574Z,3.18
2022-08-21T10:40:20.217Z,3.50
2022-08-21T10:43:06.271Z,3.48
2022-08-21T10:45:49.224Z,3.59
2022-08-21T10:48:36.302Z,4.14
2022-08-21T10:51:44.549Z,3.77
2022-08-21T10:54:41.494Z,4.02
2022-08-21T10:57:29.785Z,3.59
2022-08-21T11:00:11.407Z,3.33
2022-08-21T11:02:56.423Z,3.35
2022-08-21T11:05:39.537Z,3.68
2022-08-21T11:08:43.139Z,5.60
2022-08-21T11:11:36.423Z,6.85
2022-08-21T11:14:03.052Z,4.29
2022-08-21T11:16:46.275Z,3.73
2022-08-21T11:19:46.045Z,4.31
2022-08-21T11:22:32.934Z,3.61
2022-08-21T11:25:21.177Z,3.18
2022-08-21T11:28:08.772Z,3.28
2022-08-21T11:31:09.779Z,4.31
2022-08-21T11:34:12.826Z,3.68
2022-08-21T11:37:00.894Z,3.39
2022-08-21T11:39:59.354Z,2.78
2022-08-21T11:43:01.491Z,2.85
2022-08-21T11:45:40.851Z,2.74
2022-08-21T11:48:27.265Z,2.75
2022-08-21T11:50:57.835Z,3.10
2022-08-21T11:53:35.709Z,2.99
2022-08-21T11:56:11.873Z,2.88
2022-08-21T11:58:48.866Z,2.80
2022-08-21T12:01:27.167Z,2.85
2022-08-21T12:04:00.408Z,2.13
2022-08-21T12:06:35.102Z,1.97
2022-08-21T12:09:09.890Z,1.93
2022-08-21T12:12:11.938Z,1.79
2022-08-21T12:14:47.896Z,2.68
2022-08-21T12:17:21.120Z,3.29
2022-08-21T12:20:00.312Z,3.04
2022-08-21T12:22:41.847Z,2.99
2022-08-21T12:25:20.948Z,2.58
2022-08-21T12:27:53.286Z,2.71
2022-08-21T12:30:42.542Z,2.63
2022-08-21T12:33:39.550Z,2.62
2022-08-21T12:36:12.705Z,2.49
2022-08-21T12:39:04.228Z,1.75
2022-08-21T12:41:44.915Z,1.72
2022-08-21T12:44:17.685Z,2.52
2022-08-21T12:46:51.821Z,2.72
2022-08-21T12:49:35.308Z,2.59
2022-08-21T12:52:17.803Z,2.37
2022-08-21T12:54:46.127Z,1.21
2022-08-21T12:57:26.028Z,1.49
2022-08-21T13:00:00.813Z,2.36
2022-08-21T13:02:36.554Z,2.23
2022-08-21T13:05:07.491Z,1.57
2022-08-21T13:07:37.926Z,1.49
2022-08-21T13:10:21.300Z,1.46
2022-08-21T13:12:48.891Z,1.33
2022-08-21T13:15:26.217Z,1.65
2022-08-21T13:18:01.080Z,1.81
2022-08-21T13:20:31.469Z,2.20
2022-08-21T13:22:58.611Z,2.23
2022-08-21T13:25:36.999Z,2.29
2022-08-21T13:28:11.239Z,2.55
2022-08-21T13:30:44.392Z,1.90
2022-08-21T13:33:16.212Z,1.54
2022-08-21T13:36:09.934Z,1.32
2022-08-21T13:38:40.824Z,1.36
2022-08-21T13:41:16.690Z,1.41
2022-08-21T13:43:49.806Z,1.47
2022-08-21T13:46:19.770Z,1.50
2022-08-21T13:48:46.770Z,1.45
2022-08-21T13:51:13.934Z,1.53
2022-08-21T13:53:43.392Z,1.36
2022-08-21T13:56:10.105Z,1.30
2022-08-21T13:58:46.874Z,1.42
2022-08-21T14:01:26.400Z,1.53
2022-08-21T14:03:58.282Z,1.43
2022-08-21T14:06:29.225Z,1.39
2022-08-21T14:09:00.820Z,1.30
2022-08-21T14:11:34.581Z,1.38
2022-08-21T14:14:27.641Z,1.27
2022-08-21T14:17:24.553Z,1.42
2022-08-21T14:19:50.618Z,1.21
2022-08-21T14:22:35.646Z,1.43
2022-08-21T14:25:05.176Z,1.46
2022-08-21T14:27:32.311Z,1.28
2022-08-21T14:30:10.563Z,1.33
2022-08-21T14:32:44.686Z,1.37
2022-08-21T14:35:12.823Z,1.37
2022-08-21T14:37:43.652Z,1.47
2022-08-21T14:40:11.909Z,1.47
2022-08-21T14:42:44.698Z,1.49
2022-08-21T14:45:21.234Z,1.40
2022-08-21T14:47:51.625Z,1.42
2022-08-21T14:50:18.417Z,1.31
2022-08-21T14:52:45.137Z,1.37
2022-08-21T14:55:12.514Z,1.37
2022-08-21T14:57:39.254Z,1.30
2022-08-21T15:00:07.611Z,1.47
2022-08-21T15:02:34.550Z,1.46
2022-08-21T15:05:04.941Z,1.59
2022-08-21T15:07:31.600Z,1.50
2022-08-21T15:09:58.419Z,1.29
2022-08-21T15:12:26.328Z,1.46
2022-08-21T15:14:53.722Z,1.47
2022-08-21T15:17:20.869Z,1.53
2022-08-21T15:19:47.912Z,1.48
2022-08-21T15:22:18.853Z,1.59
2022-08-21T15:24:47.231Z,1.48
2022-08-21T15:27:17.563Z,1.56
2022-08-21T15:29:47.026Z,1.64
2022-08-21T15:32:26.063Z,1.65
2022-08-21T15:34:54.308Z,1.67
2022-08-21T15:37:21.869Z,1.47
2022-08-21T15:39:53.818Z,1.50
2022-08-21T15:42:22.388Z,1.59
2022-08-21T15:44:49.435Z,1.41
2022-08-21T15:47:21.998Z,1.62
2022-08-21T15:49:49.214Z,1.66
2022-08-21T15:52:19.996Z,1.50
2022-08-21T15:54:47.473Z,1.67
2022-08-21T15:57:21.060Z,1.64
2022-08-21T15:59:53.937Z,1.74
2022-08-21T16:02:31.760Z,1.66
2022-08-21T16:04:58.997Z,1.76
2022-08-21T16:07:26.417Z,1.63
2022-08-21T16:09:53.251Z,1.71
2022-08-21T16:12:29.158Z,1.64
2022-08-21T16:14:55.932Z,1.59
2022-08-21T16:17:30.352Z,1.60
2022-08-21T16:19:59.186Z,1.78
2022-08-21T16:22:37.521Z,1.66
2022-08-21T16:25:13.475Z,1.75
2022-08-21T16:27:43.955Z,1.68
2022-08-21T16:30:12.535Z,1.64
2022-08-21T16:32:39.259Z,1.60
2022-08-21T16:35:06.077Z,1.73
2022-08-21T16:37:32.941Z,1.91
2022-08-21T16:39:59.661Z,1.74
2022-08-21T16:42:26.649Z,1.64
2022-08-21T16:44:56.566Z,1.78
2022-08-21T16:47:27.240Z,1.93
2022-08-21T16:49:54.653Z,2.29
2022-08-21T16:52:21.419Z,2.16
2022-08-21T16:54:48.115Z,1.90
2022-08-21T16:57:15.303Z,1.72
2022-08-21T16:59:42.253Z,1.69
2022-08-21T17:02:40.091Z,1.69
2022-08-21T17:05:13.601Z,1.97
2022-08-21T17:07:42.526Z,1.96
2022-08-21T17:10:11.000Z,2.09
2022-08-21T17:12:38.705Z,2.22
2022-08-21T17:15:22.158Z,2.09
2022-08-21T17:17:49.831Z,2.14
2022-08-21T17:20:17.300Z,2.24
2022-08-21T17:22:44.099Z,2.02
2022-08-21T17:25:11.951Z,2.10
2022-08-21T17:27:40.100Z,2.10
2022-08-21T17:30:07.914Z,2.05
2022-08-21T17:32:34.726Z,2.08
2022-08-21T17:35:01.534Z,1.96
2022-08-21T17:37:29.462Z,2.25
2022-08-21T17:39:56.805Z,2.00
2022-08-21T17:42:23.831Z,2.02
2022-08-21T17:44:50.620Z,2.07
2022-08-21T17:47:17.783Z,2.16
2022-08-21T17:49:44.402Z,2.25
2022-08-21T17:52:11.125Z,1.96
2022-08-21T17:54:37.780Z,2.13
2022-08-21T17:57:05.283Z,2.09
2022-08-21T17:59:32.758Z,2.06
2022-08-21T18:01:59.784Z,2.17
2022-08-21T18:04:26.750Z,2.32
2022-08-21T18:06:53.415Z,2.39
2022-08-21T18:09:22.176Z,2.37
2022-08-21T18:11:49.499Z,2.25
2022-08-21T18:14:16.664Z,2.28
2022-08-21T18:16:43.421Z,2.26
2022-08-21T18:19:12.728Z,2.53
2022-08-21T18:21:39.405Z,2.37
2022-08-21T18:24:06.265Z,2.36
2022-08-21T18:26:37.388Z,2.63
2022-08-21T18:29:08.743Z,2.95
2022-08-21T18:31:39.659Z,2.84
2022-08-21T18:34:22.166Z,2.92
2022-08-21T18:36:49.441Z,3.51
2022-08-21T18:39:35.592Z,3.72
2022-08-21T18:42:08.928Z,4.08
2022-08-21T18:44:36.392Z,5.80
2022-08-21T18:47:08.874Z,7.48
2022-08-21T18:49:35.547Z,5.61
2022-08-21T18:52:03.346Z,6.59
2022-08-21T18:54:30.143Z,8.34
2022-08-21T18:56:56.740Z,6.71
2022-08-21T18:59:27.622Z,4.09
2022-08-21T19:01:54.327Z,3.19
2022-08-21T19:07:08.028Z,2.84
2022-08-21T19:09:34.660Z,2.67
2022-08-21T19:12:01.397Z,2.53
2022-08-21T19:14:28.109Z,2.51
2022-08-21T19:16:54.926Z,2.47
2022-08-21T19:19:21.577Z,2.49
2022-08-21T19:21:49.337Z,2.45
2022-08-21T19:24:17.854Z,2.35
2022-08-21T19:26:48.901Z,2.43
2022-08-21T19:29:21.081Z,2.54
2022-08-21T19:32:04.639Z,2.55
2022-08-21T19:34:31.684Z,2.59
2022-08-21T19:36:59.983Z,2.49
2022-08-21T19:39:26.908Z,2.41
2022-08-21T19:41:58.180Z,2.36
2022-08-21T19:44:28.888Z,2.29
2022-08-21T19:46:57.406Z,2.45
2022-08-21T19:49:34.966Z,2.39
2022-08-21T19:54:49.620Z,2.28
2022-08-21T19:57:17.195Z,2.46
2022-08-21T19:59:44.731Z,2.25
2022-08-21T20:02:13.468Z,2.17
2022-08-21T20:04:40.398Z,2.12
2022-08-21T20:07:26.298Z,2.11
2022-08-21T20:09:54.648Z,2.19
2022-08-21T20:12:23.308Z,2.10
2022-08-21T20:14:50.714Z,2.02
2022-08-21T20:17:20.663Z,2.17
2022-08-21T20:19:55.188Z,1.99
2022-08-21T20:22:24.127Z,2.06
2022-08-21T20:24:54.188Z,2.08
2022-08-21T20:27:25.950Z,1.91
2022-08-21T20:29:56.040Z,2.16
2022-08-21T20:32:26.012Z,1.99
2022-08-21T20:34:53.790Z,2.10
2022-08-21T20:37:35.798Z,1.97
2022-08-21T20:40:08.267Z,2.01
2022-08-21T20:42:35.225Z,1.89
2022-08-21T20:45:02.670Z,1.91
2022-08-21T20:47:29.937Z,1.95
2022-08-21T20:50:03.364Z,2.13
2022-08-21T20:52:35.730Z,2.20
2022-08-21T20:55:12.071Z,2.11
2022-08-21T20:57:55.548Z,2.13
2022-08-21T21:00:25.994Z,2.11
2022-08-21T21:03:07.227Z,2.16
2022-08-21T21:05:51.667Z,2.09
2022-08-21T21:08:28.175Z,1.99
2022-08-21T21:11:07.436Z,1.99
2022-08-21T21:13:43.712Z,2.00
2022-08-21T21:16:17.670Z,1.76
2022-08-21T21:18:53.799Z,1.79
2022-08-21T21:21:33.270Z,1.83
2022-08-21T21:24:09.197Z,1.88
2022-08-21T21:26:38.527Z,1.79
2022-08-21T21:29:20.338Z,2.03
2022-08-21T21:31:49.323Z,1.94
2022-08-21T21:34:17.120Z,1.94
2022-08-21T21:37:00.453Z,1.76
2022-08-21T21:39:56.023Z,1.85
2022-08-21T21:42:37.280Z,1.88
2022-08-21T21:45:09.906Z,2.18
2022-08-21T21:47:51.569Z,2.09
2022-08-21T21:50:50.171Z,1.91
2022-08-21T21:53:35.200Z,1.77
2022-08-21T21:56:23.215Z,1.98
2022-08-21T21:59:24.888Z,1.73
2022-08-21T22:02:05.648Z,1.88
2022-08-21T22:04:51.250Z,1.93
2022-08-21T22:07:47.406Z,2.14
2022-08-21T22:10:30.298Z,1.81
2022-08-21T22:13:09.600Z,2.05
2022-08-21T22:15:37.878Z,1.94
2022-08-21T22:18:17.026Z,1.89
2022-08-21T22:20:55.576Z,1.89
2022-08-21T22:23:27.903Z,2.10
2022-08-21T22:26:05.325Z,2.01
2022-08-21T22:28:40.451Z,2.04
2022-08-21T22:31:12.832Z,2.25
2022-08-21T22:33:41.534Z,2.28
2022-08-21T22:36:18.003Z,2.07
2022-08-21T22:38:47.105Z,2.13
2022-08-21T22:41:13.689Z,1.94
2022-08-21T22:44:02.315Z,2.09
2022-08-21T22:46:32.696Z,2.10
2022-08-21T22:49:14.141Z,2.12
2022-08-21T22:51:47.812Z,2.02
2022-08-21T22:54:34.232Z,1.94
2022-08-21T22:57:07.640Z,1.90
2022-08-21T22:59:52.388Z,2.11
2022-08-21T23:02:26.391Z,2.23
2022-08-21T23:04:58.610Z,2.18
2022-08-21T23:07:33.752Z,2.19
2022-08-21T23:10:02.317Z,2.23
2022-08-21T23:12:36.058Z,2.33
2022-08-21T23:15:18.026Z,2.07
2022-08-21T23:21:24.812Z,2.28
2022-08-21T23:24:02.862Z,2.14
2022-08-21T23:27:00.018Z,2.23
2022-08-21T23:29:51.841Z,2.28
2022-08-21T23:32:52.371Z,2.23
2022-08-21T23:35:55.397Z,2.11
2022-08-21T23:38:43.021Z,2.20
2022-08-21T23:41:44.095Z,2.26
2022-08-21T23:44:37.902Z,2.17
2022-08-21T23:47:10.989Z,2.22
2022-08-21T23:49:44.126Z,2.32
2022-08-21T23:52:40.067Z,2.30
2022-08-21T23:55:12.281Z,2.31
2022-08-21T23:57:39.298Z,2.35
